UAL342 KDEN-KLAX
Flight info
| Callsign | UAL342 |
|---|---|
| Flight time | 2h 24m |
| Altitude | 36000 |
| Route | BAYLR6 TEHRU JASSE Q90 DNERO ANJLL4 |
| Aircraft | A21N/M-SDE3FGHIRWY/LB1 |
Departure
| Time | 2026-04-25 23:11 |
|---|---|
| Airport | Denver International Airport (KDEN) |
Arrival
| Time | 2026-04-26 01:35 |
|---|---|
| Airport | Los Angeles International Airport (KLAX) |
| Time | Latitude | Longitude | Altitude | Speed | Heading |
|---|---|---|---|---|---|
| 2026-04-25 22:46 | 39.85798 | -104.67081 | 5416 ft | 0 kts | 0° |
| 2026-04-25 22:57 | 39.85793 | -104.67081 | 5416 ft | 2 kts | 0° |
| 2026-04-25 22:57 | 39.85777 | -104.67081 | 5416 ft | 2 kts | 359° |
| 2026-04-25 22:58 | 39.85762 | -104.67082 | 5416 ft | 2 kts | 0° |
| 2026-04-25 22:58 | 39.85746 | -104.67082 | 5416 ft | 2 kts | 359° |
| 2026-04-25 22:58 | 39.85731 | -104.67082 | 5416 ft | 2 kts | 360° |
| 2026-04-25 22:58 | 39.85716 | -104.67082 | 5416 ft | 2 kts | 360° |
| 2026-04-25 22:59 | 39.85701 | -104.67082 | 5416 ft | 1 kts | 360° |
| 2026-04-25 22:59 | 39.85700 | -104.67082 | 5416 ft | 0 kts | 360° |
| 2026-04-25 23:01 | 39.85701 | -104.67082 | 5416 ft | 0 kts | 360° |
| 2026-04-25 23:01 | 39.85725 | -104.67046 | 5417 ft | 13 kts | 81° |
| 2026-04-25 23:02 | 39.85698 | -104.67000 | 5419 ft | 5 kts | 143° |
| 2026-04-25 23:02 | 39.85683 | -104.66986 | 5419 ft | 3 kts | 153° |
| 2026-04-25 23:02 | 39.85633 | -104.66985 | 5418 ft | 11 kts | 196° |
| 2026-04-25 23:02 | 39.85588 | -104.67100 | 5412 ft | 17 kts | 267° |
| 2026-04-25 23:03 | 39.85589 | -104.67268 | 5407 ft | 20 kts | 272° |
| 2026-04-25 23:03 | 39.85592 | -104.67435 | 5396 ft | 25 kts | 270° |
| 2026-04-25 23:03 | 39.85593 | -104.67655 | 5383 ft | 28 kts | 271° |
| 2026-04-25 23:03 | 39.85596 | -104.67924 | 5364 ft | 31 kts | 270° |
| 2026-04-25 23:04 | 39.85596 | -104.68166 | 5347 ft | 22 kts | 271° |
| 2026-04-25 23:04 | 39.85598 | -104.68311 | 5338 ft | 26 kts | 271° |
| 2026-04-25 23:04 | 39.85476 | -104.68400 | 5328 ft | 16 kts | 181° |
| 2026-04-25 23:04 | 39.85359 | -104.68404 | 5326 ft | 17 kts | 180° |
| 2026-04-25 23:05 | 39.85236 | -104.68408 | 5323 ft | 18 kts | 194° |
| 2026-04-25 23:05 | 39.85204 | -104.68544 | 5312 ft | 19 kts | 272° |
| 2026-04-25 23:05 | 39.85205 | -104.68703 | 5304 ft | 17 kts | 268° |
| 2026-04-25 23:05 | 39.85201 | -104.68874 | 5296 ft | 20 kts | 269° |
| 2026-04-25 23:06 | 39.85196 | -104.69067 | 5292 ft | 21 kts | 267° |
| 2026-04-25 23:06 | 39.85194 | -104.69137 | 5291 ft | 7 kts | 269° |
| 2026-04-25 23:06 | 39.85195 | -104.69215 | 5291 ft | 11 kts | 272° |
| 2026-04-25 23:06 | 39.85199 | -104.69306 | 5292 ft | 10 kts | 272° |
| 2026-04-25 23:07 | 39.85202 | -104.69375 | 5295 ft | 5 kts | 272° |
| 2026-04-25 23:07 | 39.85213 | -104.69420 | 5296 ft | 5 kts | 304° |
| 2026-04-25 23:07 | 39.85280 | -104.69468 | 5294 ft | 12 kts | 303° |
| 2026-04-25 23:07 | 39.85290 | -104.69503 | 5294 ft | 0 kts | 271° |
| 2026-04-25 23:09 | 39.85291 | -104.69556 | 5296 ft | 16 kts | 269° |
| 2026-04-25 23:10 | 39.85299 | -104.69656 | 5299 ft | 11 kts | 339° |
| 2026-04-25 23:10 | 39.85408 | -104.69657 | 5293 ft | 32 kts | 0° |
| 2026-04-25 23:10 | 39.85945 | -104.69651 | 5273 ft | 118 kts | 0° |
| 2026-04-25 23:10 | 39.86990 | -104.69647 | 5298 ft | 180 kts | 3° |
| 2026-04-25 23:11 | 39.88330 | -104.69634 | 5713 ft | 205 kts | 2° |
| 2026-04-25 23:11 | 39.89848 | -104.69612 | 6094 ft | 229 kts | 2° |
| 2026-04-25 23:11 | 39.91509 | -104.69585 | 6365 ft | 252 kts | 360° |
| 2026-04-25 23:11 | 39.93039 | -104.70489 | 7240 ft | 260 kts | 312° |
| 2026-04-25 23:12 | 39.93803 | -104.72810 | 7197 ft | 303 kts | 274° |
| 2026-04-25 23:12 | 39.93479 | -104.75520 | 8081 ft | 302 kts | 245° |
| 2026-04-25 23:12 | 39.92269 | -104.77595 | 8444 ft | 290 kts | 215° |
| 2026-04-25 23:12 | 39.90433 | -104.78546 | 8365 ft | 281 kts | 192° |
| 2026-04-25 23:13 | 39.88695 | -104.79667 | 8358 ft | 285 kts | 218° |
| 2026-04-25 23:13 | 39.87212 | -104.81398 | 8414 ft | 290 kts | 221° |
| 2026-04-25 23:13 | 39.85667 | -104.83139 | 9031 ft | 292 kts | 218° |
| 2026-04-25 23:13 | 39.84113 | -104.84799 | 9683 ft | 293 kts | 224° |
| 2026-04-25 23:14 | 39.83019 | -104.86993 | 10551 ft | 296 kts | 243° |
| 2026-04-25 23:14 | 39.82191 | -104.89478 | 11213 ft | 308 kts | 246° |
| 2026-04-25 23:14 | 39.81332 | -104.92125 | 11667 ft | 325 kts | 246° |
| 2026-04-25 23:14 | 39.80416 | -104.94824 | 12347 ft | 333 kts | 245° |
| 2026-04-25 23:15 | 39.79457 | -104.97549 | 13225 ft | 334 kts | 244° |
| 2026-04-25 23:15 | 39.78486 | -105.00238 | 14099 ft | 334 kts | 244° |
| 2026-04-25 23:15 | 39.77490 | -105.02960 | 14923 ft | 336 kts | 244° |
| 2026-04-25 23:15 | 39.76482 | -105.05685 | 15731 ft | 338 kts | 244° |
| 2026-04-25 23:16 | 39.75470 | -105.08408 | 16540 ft | 339 kts | 244° |
| 2026-04-25 23:16 | 39.74438 | -105.11178 | 17354 ft | 340 kts | 244° |
| 2026-04-25 23:16 | 39.73416 | -105.13909 | 18122 ft | 341 kts | 244° |
| 2026-04-25 23:16 | 39.72382 | -105.16666 | 18877 ft | 343 kts | 244° |
| 2026-04-25 23:17 | 39.71330 | -105.19466 | 19499 ft | 347 kts | 244° |
| 2026-04-25 23:17 | 39.70268 | -105.22292 | 19971 ft | 355 kts | 244° |
| 2026-04-25 23:17 | 39.69176 | -105.25194 | 20555 ft | 360 kts | 245° |
| 2026-04-25 23:17 | 39.68086 | -105.28091 | 21155 ft | 364 kts | 245° |
| 2026-04-25 23:18 | 39.66970 | -105.31050 | 21787 ft | 366 kts | 245° |
| 2026-04-25 23:18 | 39.65859 | -105.33995 | 22454 ft | 368 kts | 245° |
| 2026-04-25 23:18 | 39.64733 | -105.36976 | 22930 ft | 370 kts | 245° |
| 2026-04-25 23:18 | 39.63599 | -105.39976 | 23087 ft | 371 kts | 245° |
| 2026-04-25 23:19 | 39.62471 | -105.42961 | 23093 ft | 369 kts | 245° |
| 2026-04-25 23:19 | 39.61335 | -105.45969 | 23090 ft | 369 kts | 245° |
| 2026-04-25 23:19 | 39.60209 | -105.48933 | 23092 ft | 368 kts | 245° |
| 2026-04-25 23:19 | 39.59071 | -105.51929 | 23259 ft | 374 kts | 245° |
| 2026-04-25 23:20 | 39.57927 | -105.54947 | 23893 ft | 374 kts | 245° |
| 2026-04-25 23:20 | 39.56776 | -105.57967 | 24598 ft | 373 kts | 245° |
| 2026-04-25 23:20 | 39.55685 | -105.60964 | 25160 ft | 373 kts | 248° |
| 2026-04-25 23:20 | 39.54716 | -105.64060 | 25685 ft | 374 kts | 251° |
| 2026-04-25 23:21 | 39.53825 | -105.67252 | 26154 ft | 376 kts | 251° |
| 2026-04-25 23:21 | 39.52946 | -105.70430 | 26642 ft | 377 kts | 251° |
| 2026-04-25 23:21 | 39.52068 | -105.73601 | 27089 ft | 379 kts | 251° |
| 2026-04-25 23:21 | 39.51177 | -105.76814 | 27553 ft | 380 kts | 251° |
| 2026-04-25 23:22 | 39.50287 | -105.80017 | 28004 ft | 381 kts | 251° |
| 2026-04-25 23:22 | 39.49394 | -105.83234 | 28414 ft | 383 kts | 251° |
| 2026-04-25 23:22 | 39.48494 | -105.86472 | 28812 ft | 385 kts | 251° |
| 2026-04-25 23:23 | 39.46674 | -105.93000 | 29571 ft | 388 kts | 251° |
| 2026-04-25 23:23 | 39.45752 | -105.96300 | 29926 ft | 390 kts | 251° |
| 2026-04-25 23:23 | 39.44831 | -105.99599 | 30362 ft | 389 kts | 250° |
| 2026-04-25 23:23 | 39.43913 | -106.02869 | 30903 ft | 387 kts | 251° |
| 2026-04-25 23:24 | 39.43010 | -106.06094 | 31451 ft | 383 kts | 251° |
| 2026-04-25 23:24 | 39.42106 | -106.09321 | 31986 ft | 380 kts | 251° |
| 2026-04-25 23:24 | 39.41214 | -106.12492 | 32467 ft | 378 kts | 251° |
| 2026-04-25 23:24 | 39.40315 | -106.15682 | 32926 ft | 376 kts | 251° |
| 2026-04-25 23:25 | 39.39437 | -106.18798 | 33349 ft | 374 kts | 251° |
| 2026-04-25 23:25 | 39.38540 | -106.21972 | 33737 ft | 373 kts | 251° |
| 2026-04-25 23:25 | 39.37658 | -106.25092 | 34128 ft | 371 kts | 251° |
| 2026-04-25 23:25 | 39.37078 | -106.27141 | 34368 ft | 370 kts | 251° |
| 2026-04-25 23:26 | 39.35902 | -106.31288 | 34711 ft | 369 kts | 251° |
| 2026-04-25 23:26 | 39.35013 | -106.34424 | 34918 ft | 370 kts | 251° |
| 2026-04-25 23:26 | 39.34140 | -106.37498 | 35098 ft | 372 kts | 251° |
| 2026-04-25 23:26 | 39.33248 | -106.40640 | 35270 ft | 373 kts | 251° |
| 2026-04-25 23:27 | 39.32354 | -106.43785 | 35464 ft | 373 kts | 252° |
| 2026-04-25 23:27 | 39.31459 | -106.46930 | 35666 ft | 373 kts | 251° |
| 2026-04-25 23:27 | 39.30576 | -106.50028 | 35842 ft | 374 kts | 252° |
| 2026-04-25 23:27 | 39.29671 | -106.53198 | 35963 ft | 375 kts | 251° |
| 2026-04-25 23:28 | 39.28782 | -106.56313 | 36056 ft | 376 kts | 251° |
| 2026-04-25 23:28 | 39.26965 | -106.62649 | 36051 ft | 376 kts | 251° |
| 2026-04-25 23:29 | 39.24899 | -106.68822 | 36061 ft | 378 kts | 246° |
| 2026-04-25 23:29 | 39.22366 | -106.74773 | 36046 ft | 380 kts | 242° |
| 2026-04-25 23:30 | 39.19399 | -106.80398 | 36041 ft | 383 kts | 237° |
| 2026-04-25 23:30 | 39.16242 | -106.85887 | 36029 ft | 383 kts | 237° |
| 2026-04-25 23:31 | 39.13074 | -106.91385 | 36039 ft | 383 kts | 237° |
| 2026-04-25 23:31 | 39.09881 | -106.96903 | 36042 ft | 383 kts | 237° |
| 2026-04-25 23:32 | 39.06721 | -107.02351 | 36068 ft | 383 kts | 237° |
| 2026-04-25 23:32 | 39.03527 | -107.07849 | 36082 ft | 383 kts | 237° |
| 2026-04-25 23:33 | 39.00348 | -107.13306 | 36103 ft | 383 kts | 237° |
| 2026-04-25 23:33 | 38.97161 | -107.18773 | 36106 ft | 382 kts | 237° |
| 2026-04-25 23:34 | 38.93984 | -107.24211 | 36103 ft | 382 kts | 237° |
| 2026-04-25 23:34 | 38.90797 | -107.29652 | 36117 ft | 381 kts | 237° |
| 2026-04-25 23:35 | 38.87598 | -107.35103 | 36121 ft | 381 kts | 237° |
| 2026-04-25 23:35 | 38.84417 | -107.40520 | 36131 ft | 381 kts | 237° |
| 2026-04-25 23:36 | 38.81240 | -107.45922 | 36122 ft | 380 kts | 237° |
| 2026-04-25 23:36 | 38.78050 | -107.51332 | 36125 ft | 380 kts | 237° |
| 2026-04-25 23:37 | 38.74885 | -107.56696 | 36117 ft | 380 kts | 237° |
| 2026-04-25 23:37 | 38.71700 | -107.62083 | 36122 ft | 379 kts | 237° |
| 2026-04-25 23:38 | 38.68517 | -107.67454 | 36106 ft | 379 kts | 237° |
| 2026-04-25 23:38 | 38.65337 | -107.72814 | 36087 ft | 380 kts | 237° |
| 2026-04-25 23:39 | 38.62126 | -107.78219 | 36046 ft | 381 kts | 237° |
| 2026-04-25 23:39 | 38.58941 | -107.83568 | 36022 ft | 381 kts | 236° |
| 2026-04-25 23:40 | 38.55750 | -107.88921 | 35971 ft | 380 kts | 236° |
| 2026-04-25 23:40 | 38.52544 | -107.94288 | 35950 ft | 380 kts | 236° |
| 2026-04-25 23:41 | 38.49333 | -107.99653 | 35936 ft | 380 kts | 237° |
| 2026-04-25 23:41 | 38.46135 | -108.04992 | 35988 ft | 379 kts | 236° |
| 2026-04-25 23:42 | 38.42939 | -108.10322 | 36026 ft | 380 kts | 236° |
| 2026-04-25 23:42 | 38.39727 | -108.15661 | 36039 ft | 380 kts | 236° |
| 2026-04-25 23:43 | 38.36516 | -108.20990 | 36061 ft | 380 kts | 236° |
| 2026-04-25 23:43 | 38.33293 | -108.26332 | 36052 ft | 381 kts | 236° |
| 2026-04-25 23:44 | 38.30059 | -108.31687 | 36050 ft | 381 kts | 236° |
| 2026-04-25 23:44 | 38.26832 | -108.37020 | 36046 ft | 382 kts | 236° |
| 2026-04-25 23:45 | 38.23614 | -108.42332 | 36029 ft | 381 kts | 236° |
| 2026-04-25 23:45 | 38.20386 | -108.47648 | 36030 ft | 380 kts | 236° |
| 2026-04-25 23:46 | 38.17172 | -108.52930 | 36013 ft | 381 kts | 236° |
| 2026-04-25 23:46 | 38.13932 | -108.58248 | 36018 ft | 381 kts | 236° |
| 2026-04-25 23:47 | 38.10720 | -108.63515 | 36013 ft | 380 kts | 236° |
| 2026-04-25 23:47 | 38.07457 | -108.68852 | 36008 ft | 381 kts | 235° |
| 2026-04-25 23:48 | 38.04221 | -108.74143 | 35991 ft | 381 kts | 235° |
| 2026-04-25 23:48 | 38.00977 | -108.79437 | 35999 ft | 380 kts | 234° |
| 2026-04-25 23:49 | 37.97746 | -108.84695 | 35997 ft | 380 kts | 235° |
| 2026-04-25 23:49 | 37.94496 | -108.89981 | 36010 ft | 380 kts | 235° |
| 2026-04-25 23:50 | 37.91270 | -108.95216 | 35980 ft | 379 kts | 234° |
| 2026-04-25 23:50 | 37.88020 | -109.00483 | 35986 ft | 380 kts | 235° |
| 2026-04-25 23:51 | 37.84775 | -109.05731 | 35956 ft | 381 kts | 235° |
| 2026-04-25 23:51 | 37.81512 | -109.11005 | 35939 ft | 381 kts | 235° |
| 2026-04-25 23:52 | 37.78259 | -109.16254 | 35933 ft | 380 kts | 235° |
| 2026-04-25 23:52 | 37.74995 | -109.21509 | 35936 ft | 381 kts | 234° |
| 2026-04-25 23:53 | 37.71733 | -109.26758 | 35926 ft | 380 kts | 234° |
| 2026-04-25 23:53 | 37.68462 | -109.32008 | 35921 ft | 382 kts | 235° |
| 2026-04-25 23:54 | 37.65175 | -109.37274 | 35908 ft | 382 kts | 234° |
| 2026-04-25 23:54 | 37.61893 | -109.42520 | 35897 ft | 382 kts | 235° |
| 2026-04-25 23:55 | 37.58620 | -109.47751 | 35892 ft | 383 kts | 235° |
| 2026-04-25 23:55 | 37.55332 | -109.53001 | 35887 ft | 382 kts | 235° |
| 2026-04-25 23:56 | 37.52026 | -109.58263 | 35885 ft | 382 kts | 235° |
| 2026-04-25 23:56 | 37.48731 | -109.63502 | 35894 ft | 382 kts | 235° |
| 2026-04-25 23:57 | 37.45429 | -109.68740 | 35904 ft | 383 kts | 234° |
| 2026-04-25 23:57 | 37.44315 | -109.70509 | 35906 ft | 382 kts | 234° |
| 2026-04-26 00:13 | 37.42493 | -109.73396 | 35912 ft | 382 kts | 234° |
| 2026-04-26 00:14 | 37.39185 | -109.78629 | 35921 ft | 383 kts | 234° |
| 2026-04-26 00:14 | 37.35877 | -109.83856 | 35920 ft | 384 kts | 234° |
| 2026-04-26 00:15 | 37.32564 | -109.89086 | 35918 ft | 383 kts | 234° |
| 2026-04-26 00:15 | 37.29241 | -109.94323 | 35920 ft | 383 kts | 234° |
| 2026-04-26 00:16 | 37.25925 | -109.99539 | 35922 ft | 383 kts | 234° |
| 2026-04-26 00:16 | 37.22592 | -110.04768 | 35920 ft | 383 kts | 234° |
| 2026-04-26 00:17 | 37.19264 | -110.09988 | 35917 ft | 383 kts | 234° |
| 2026-04-26 00:17 | 37.15941 | -110.15192 | 35908 ft | 384 kts | 234° |
| 2026-04-26 00:18 | 37.12601 | -110.20412 | 35900 ft | 383 kts | 234° |
| 2026-04-26 00:18 | 37.09271 | -110.25610 | 35894 ft | 384 kts | 234° |
| 2026-04-26 00:19 | 37.05954 | -110.30776 | 35895 ft | 383 kts | 234° |
| 2026-04-26 00:19 | 37.02611 | -110.35977 | 35894 ft | 383 kts | 234° |
| 2026-04-26 00:20 | 36.99261 | -110.41180 | 35902 ft | 384 kts | 234° |
| 2026-04-26 00:20 | 36.95919 | -110.46363 | 35899 ft | 384 kts | 234° |
| 2026-04-26 00:21 | 36.92569 | -110.51547 | 35911 ft | 384 kts | 234° |
| 2026-04-26 00:21 | 36.89214 | -110.56737 | 35905 ft | 384 kts | 234° |
| 2026-04-26 00:22 | 36.85842 | -110.61942 | 35905 ft | 384 kts | 234° |
| 2026-04-26 00:22 | 36.82484 | -110.67117 | 35907 ft | 385 kts | 233° |
| 2026-04-26 00:23 | 36.79139 | -110.72265 | 35915 ft | 383 kts | 233° |
| 2026-04-26 00:23 | 36.75789 | -110.77410 | 35913 ft | 382 kts | 233° |
| 2026-04-26 00:24 | 36.72453 | -110.82532 | 35914 ft | 382 kts | 233° |
| 2026-04-26 00:24 | 36.69096 | -110.87672 | 35915 ft | 382 kts | 233° |
| 2026-04-26 00:25 | 36.65739 | -110.92805 | 35914 ft | 381 kts | 233° |
| 2026-04-26 00:25 | 36.62391 | -110.97919 | 35916 ft | 382 kts | 233° |
| 2026-04-26 00:26 | 36.59046 | -111.03019 | 35921 ft | 382 kts | 234° |
| 2026-04-26 00:26 | 36.55687 | -111.08130 | 35927 ft | 382 kts | 233° |
| 2026-04-26 00:27 | 36.52344 | -111.13217 | 35921 ft | 382 kts | 233° |
| 2026-04-26 00:27 | 36.48976 | -111.18327 | 35932 ft | 381 kts | 234° |
| 2026-04-26 00:28 | 36.45623 | -111.23406 | 35927 ft | 381 kts | 234° |
| 2026-04-26 00:28 | 36.43943 | -111.25949 | 36160 ft | 381 kts | 233° |
| 2026-04-26 00:28 | 36.42274 | -111.28477 | 36018 ft | 378 kts | 233° |
| 2026-04-26 00:29 | 36.38926 | -111.33535 | 35952 ft | 379 kts | 233° |
| 2026-04-26 00:29 | 36.35586 | -111.38575 | 35938 ft | 378 kts | 233° |
| 2026-04-26 00:30 | 36.32262 | -111.43581 | 35942 ft | 377 kts | 233° |
| 2026-04-26 00:30 | 36.28892 | -111.48651 | 35944 ft | 386 kts | 233° |
| 2026-04-26 00:31 | 36.25445 | -111.53833 | 35936 ft | 394 kts | 233° |
| 2026-04-26 00:31 | 36.21932 | -111.59102 | 35940 ft | 396 kts | 233° |
| 2026-04-26 00:32 | 36.18442 | -111.64326 | 35931 ft | 396 kts | 233° |
| 2026-04-26 00:32 | 36.13161 | -111.72222 | 35934 ft | 396 kts | 233° |
| 2026-04-26 00:33 | 36.09869 | -111.77632 | 35946 ft | 394 kts | 237° |
| 2026-04-26 00:33 | 36.06980 | -111.83408 | 35943 ft | 394 kts | 241° |
| 2026-04-26 00:34 | 36.04552 | -111.89434 | 35945 ft | 394 kts | 246° |
| 2026-04-26 00:34 | 36.02488 | -111.95712 | 35957 ft | 394 kts | 248° |
| 2026-04-26 00:35 | 36.00469 | -112.01978 | 35964 ft | 396 kts | 248° |
| 2026-04-26 00:35 | 35.98444 | -112.08270 | 35964 ft | 396 kts | 248° |
| 2026-04-26 00:36 | 35.96413 | -112.14581 | 35965 ft | 394 kts | 248° |
| 2026-04-26 00:36 | 35.94393 | -112.20851 | 35962 ft | 394 kts | 248° |
| 2026-04-26 00:37 | 35.92370 | -112.27118 | 35958 ft | 393 kts | 248° |
| 2026-04-26 00:37 | 35.91366 | -112.30230 | 35803 ft | 393 kts | 248° |
| 2026-04-26 00:37 | 35.90364 | -112.33328 | 35887 ft | 394 kts | 248° |
| 2026-04-26 00:38 | 35.88321 | -112.39629 | 35946 ft | 394 kts | 248° |
| 2026-04-26 00:38 | 35.86288 | -112.45890 | 35948 ft | 394 kts | 248° |
| 2026-04-26 00:39 | 35.84240 | -112.52183 | 35956 ft | 393 kts | 248° |
| 2026-04-26 00:39 | 35.82549 | -112.57368 | 35952 ft | 394 kts | 248° |
| 2026-04-26 00:40 | 35.80167 | -112.64660 | 35951 ft | 393 kts | 248° |
| 2026-04-26 00:40 | 35.78135 | -112.70865 | 35949 ft | 393 kts | 247° |
| 2026-04-26 00:41 | 35.76082 | -112.77121 | 35941 ft | 393 kts | 247° |
| 2026-04-26 00:41 | 35.74029 | -112.83366 | 35942 ft | 393 kts | 247° |
| 2026-04-26 00:42 | 35.71990 | -112.89555 | 35943 ft | 392 kts | 247° |
| 2026-04-26 00:42 | 35.69938 | -112.95772 | 35937 ft | 392 kts | 247° |
| 2026-04-26 00:43 | 35.67889 | -113.01962 | 35939 ft | 392 kts | 247° |
| 2026-04-26 00:43 | 35.65844 | -113.08140 | 35936 ft | 392 kts | 246° |
| 2026-04-26 00:44 | 35.63793 | -113.14307 | 35928 ft | 391 kts | 247° |
| 2026-04-26 00:44 | 35.61734 | -113.20497 | 35925 ft | 391 kts | 246° |
| 2026-04-26 00:45 | 35.60011 | -113.25651 | 35922 ft | 391 kts | 246° |
| 2026-04-26 00:45 | 35.57608 | -113.32828 | 35907 ft | 391 kts | 247° |
| 2026-04-26 00:46 | 35.55552 | -113.38964 | 35908 ft | 391 kts | 246° |
| 2026-04-26 00:46 | 35.53480 | -113.45132 | 35904 ft | 391 kts | 247° |
| 2026-04-26 00:47 | 35.51418 | -113.51257 | 35900 ft | 390 kts | 246° |
| 2026-04-26 00:47 | 35.49344 | -113.57406 | 35890 ft | 390 kts | 246° |
| 2026-04-26 00:48 | 35.47277 | -113.63521 | 35890 ft | 390 kts | 246° |
| 2026-04-26 00:48 | 35.45197 | -113.69658 | 35883 ft | 389 kts | 246° |
| 2026-04-26 00:49 | 35.43132 | -113.75751 | 35873 ft | 390 kts | 246° |
| 2026-04-26 00:49 | 35.41060 | -113.81852 | 35880 ft | 389 kts | 246° |
| 2026-04-26 00:50 | 35.38969 | -113.87981 | 35863 ft | 388 kts | 246° |
| 2026-04-26 00:50 | 35.36904 | -113.94038 | 35855 ft | 388 kts | 246° |
| 2026-04-26 00:51 | 35.34812 | -114.00159 | 35840 ft | 389 kts | 246° |
| 2026-04-26 00:51 | 35.32731 | -114.06235 | 35839 ft | 389 kts | 246° |
| 2026-04-26 00:52 | 35.30646 | -114.12312 | 35824 ft | 389 kts | 246° |
| 2026-04-26 00:52 | 35.28548 | -114.18404 | 35818 ft | 388 kts | 246° |
| 2026-04-26 00:53 | 35.26449 | -114.24495 | 35822 ft | 389 kts | 246° |
| 2026-04-26 00:53 | 35.24368 | -114.30525 | 35799 ft | 388 kts | 246° |
| 2026-04-26 00:54 | 35.22269 | -114.36598 | 35789 ft | 388 kts | 246° |
| 2026-04-26 00:54 | 35.20153 | -114.42693 | 35788 ft | 389 kts | 246° |
| 2026-04-26 00:55 | 35.18055 | -114.48739 | 35767 ft | 388 kts | 245° |
| 2026-04-26 00:55 | 35.15951 | -114.54778 | 35765 ft | 388 kts | 246° |
| 2026-04-26 00:56 | 35.13830 | -114.60861 | 35768 ft | 389 kts | 246° |
| 2026-04-26 00:56 | 35.11731 | -114.66895 | 35774 ft | 388 kts | 245° |
| 2026-04-26 00:57 | 35.09627 | -114.72958 | 35793 ft | 388 kts | 245° |
| 2026-04-26 00:57 | 35.07531 | -114.78979 | 35797 ft | 388 kts | 245° |
| 2026-04-26 00:58 | 35.05426 | -114.85016 | 35792 ft | 389 kts | 245° |
| 2026-04-26 00:58 | 35.03231 | -114.91024 | 35778 ft | 388 kts | 242° |
| 2026-04-26 00:59 | 35.00749 | -114.96822 | 35770 ft | 387 kts | 241° |
| 2026-04-26 00:59 | 34.98235 | -115.02652 | 35773 ft | 388 kts | 241° |
| 2026-04-26 01:00 | 34.95720 | -115.08458 | 35788 ft | 388 kts | 241° |
| 2026-04-26 01:00 | 34.93205 | -115.14251 | 35784 ft | 388 kts | 242° |
| 2026-04-26 01:01 | 34.90699 | -115.20011 | 35788 ft | 387 kts | 242° |
| 2026-04-26 01:01 | 34.88182 | -115.25790 | 35790 ft | 387 kts | 242° |
| 2026-04-26 01:02 | 34.85651 | -115.31591 | 35782 ft | 387 kts | 241° |
| 2026-04-26 01:02 | 34.83132 | -115.37350 | 35784 ft | 388 kts | 241° |
| 2026-04-26 01:03 | 34.80609 | -115.43107 | 35779 ft | 380 kts | 241° |
| 2026-04-26 01:03 | 34.78331 | -115.48775 | 35778 ft | 372 kts | 244° |
| 2026-04-26 01:04 | 34.76231 | -115.54476 | 35774 ft | 371 kts | 244° |
| 2026-04-26 01:04 | 34.74115 | -115.60208 | 35775 ft | 370 kts | 244° |
| 2026-04-26 01:05 | 34.72013 | -115.65903 | 35777 ft | 371 kts | 244° |
| 2026-04-26 01:05 | 34.69913 | -115.71590 | 35775 ft | 371 kts | 244° |
| 2026-04-26 01:06 | 34.67803 | -115.77296 | 35776 ft | 370 kts | 244° |
| 2026-04-26 01:06 | 34.65691 | -115.83004 | 35771 ft | 371 kts | 244° |
| 2026-04-26 01:07 | 34.63587 | -115.88662 | 35763 ft | 370 kts | 244° |
| 2026-04-26 01:07 | 34.61492 | -115.94343 | 35764 ft | 370 kts | 244° |
| 2026-04-26 01:08 | 34.59391 | -116.00040 | 35757 ft | 370 kts | 244° |
| 2026-04-26 01:08 | 34.57286 | -116.05742 | 35764 ft | 371 kts | 244° |
| 2026-04-26 01:09 | 34.55185 | -116.11425 | 35763 ft | 371 kts | 244° |
| 2026-04-26 01:09 | 34.53084 | -116.17089 | 35785 ft | 370 kts | 244° |
| 2026-04-26 01:10 | 34.50970 | -116.22794 | 35795 ft | 371 kts | 244° |
| 2026-04-26 01:10 | 34.48854 | -116.28473 | 35812 ft | 372 kts | 244° |
| 2026-04-26 01:11 | 34.46738 | -116.34161 | 35811 ft | 373 kts | 244° |
| 2026-04-26 01:11 | 34.44600 | -116.39893 | 35808 ft | 373 kts | 244° |
| 2026-04-26 01:12 | 34.42473 | -116.45585 | 35820 ft | 372 kts | 244° |
| 2026-04-26 01:12 | 34.41386 | -116.48400 | 35599 ft | 369 kts | 242° |
| 2026-04-26 01:12 | 34.40246 | -116.51173 | 34925 ft | 374 kts | 242° |
| 2026-04-26 01:13 | 34.39078 | -116.54024 | 34039 ft | 381 kts | 242° |
| 2026-04-26 01:13 | 34.37897 | -116.56892 | 33165 ft | 385 kts | 242° |
| 2026-04-26 01:13 | 34.36709 | -116.59782 | 32318 ft | 388 kts | 242° |
| 2026-04-26 01:13 | 34.35528 | -116.62646 | 31372 ft | 389 kts | 242° |
| 2026-04-26 01:14 | 34.34324 | -116.65562 | 30382 ft | 386 kts | 241° |
| 2026-04-26 01:14 | 34.33147 | -116.68423 | 29743 ft | 375 kts | 241° |
| 2026-04-26 01:14 | 34.32027 | -116.71207 | 29049 ft | 366 kts | 241° |
| 2026-04-26 01:14 | 34.30932 | -116.73943 | 28266 ft | 360 kts | 241° |
| 2026-04-26 01:15 | 34.29841 | -116.76650 | 27394 ft | 356 kts | 242° |
| 2026-04-26 01:15 | 34.28776 | -116.79301 | 26541 ft | 352 kts | 242° |
| 2026-04-26 01:15 | 34.27725 | -116.81916 | 25706 ft | 349 kts | 241° |
| 2026-04-26 01:15 | 34.26676 | -116.84521 | 24867 ft | 345 kts | 241° |
| 2026-04-26 01:16 | 34.25637 | -116.87100 | 24040 ft | 342 kts | 241° |
| 2026-04-26 01:16 | 34.24600 | -116.89670 | 23223 ft | 340 kts | 241° |
| 2026-04-26 01:16 | 34.23566 | -116.92218 | 22443 ft | 337 kts | 242° |
| 2026-04-26 01:16 | 34.22565 | -116.94696 | 21872 ft | 329 kts | 242° |
| 2026-04-26 01:17 | 34.21605 | -116.97189 | 21390 ft | 321 kts | 244° |
| 2026-04-26 01:17 | 34.20795 | -116.99632 | 20983 ft | 315 kts | 247° |
| 2026-04-26 01:17 | 34.20083 | -117.02141 | 20592 ft | 322 kts | 249° |
| 2026-04-26 01:17 | 34.19368 | -117.04760 | 20189 ft | 330 kts | 249° |
| 2026-04-26 01:18 | 34.18652 | -117.07399 | 19689 ft | 331 kts | 249° |
| 2026-04-26 01:18 | 34.17945 | -117.10004 | 19240 ft | 328 kts | 249° |
| 2026-04-26 01:18 | 34.17240 | -117.12599 | 18747 ft | 327 kts | 249° |
| 2026-04-26 01:18 | 34.16534 | -117.15211 | 18285 ft | 326 kts | 249° |
| 2026-04-26 01:19 | 34.15832 | -117.17770 | 17862 ft | 324 kts | 249° |
| 2026-04-26 01:19 | 34.15121 | -117.20360 | 17448 ft | 323 kts | 249° |
| 2026-04-26 01:19 | 34.14423 | -117.22900 | 17051 ft | 321 kts | 249° |
| 2026-04-26 01:19 | 34.13725 | -117.25438 | 16649 ft | 319 kts | 249° |
| 2026-04-26 01:20 | 34.13026 | -117.27972 | 16253 ft | 316 kts | 249° |
| 2026-04-26 01:20 | 34.12338 | -117.30463 | 15862 ft | 315 kts | 249° |
| 2026-04-26 01:20 | 34.11654 | -117.32940 | 15462 ft | 313 kts | 249° |
| 2026-04-26 01:20 | 34.10969 | -117.35421 | 15041 ft | 311 kts | 249° |
| 2026-04-26 01:21 | 34.10291 | -117.37907 | 14617 ft | 310 kts | 250° |
| 2026-04-26 01:21 | 34.09672 | -117.40366 | 14203 ft | 309 kts | 251° |
| 2026-04-26 01:21 | 34.09057 | -117.42851 | 13775 ft | 308 kts | 251° |
| 2026-04-26 01:21 | 34.08447 | -117.45313 | 13356 ft | 306 kts | 251° |
| 2026-04-26 01:22 | 34.07846 | -117.47722 | 12950 ft | 302 kts | 251° |
| 2026-04-26 01:22 | 34.07256 | -117.50081 | 12787 ft | 290 kts | 251° |
| 2026-04-26 01:22 | 34.06664 | -117.52419 | 12433 ft | 285 kts | 251° |
| 2026-04-26 01:22 | 34.06093 | -117.54658 | 12064 ft | 281 kts | 251° |
| 2026-04-26 01:23 | 34.05520 | -117.56897 | 11733 ft | 277 kts | 251° |
| 2026-04-26 01:23 | 34.04956 | -117.59100 | 11402 ft | 272 kts | 251° |
| 2026-04-26 01:23 | 34.04404 | -117.61253 | 11008 ft | 271 kts | 251° |
| 2026-04-26 01:23 | 34.03851 | -117.63407 | 10591 ft | 270 kts | 252° |
| 2026-04-26 01:24 | 34.03295 | -117.65575 | 10275 ft | 267 kts | 251° |
| 2026-04-26 01:24 | 34.02746 | -117.67714 | 10144 ft | 269 kts | 252° |
| 2026-04-26 01:24 | 34.02282 | -117.69879 | 10012 ft | 270 kts | 257° |
| 2026-04-26 01:24 | 34.01973 | -117.72140 | 9711 ft | 272 kts | 261° |
| 2026-04-26 01:25 | 34.01753 | -117.74369 | 9392 ft | 270 kts | 262° |
| 2026-04-26 01:25 | 34.01539 | -117.76611 | 9082 ft | 270 kts | 262° |
| 2026-04-26 01:25 | 34.01375 | -117.78327 | 8844 ft | 270 kts | 262° |
| 2026-04-26 01:25 | 34.01159 | -117.80573 | 8531 ft | 268 kts | 262° |
| 2026-04-26 01:26 | 34.00944 | -117.82784 | 8222 ft | 267 kts | 262° |
| 2026-04-26 01:26 | 34.00729 | -117.84991 | 7907 ft | 266 kts | 261° |
| 2026-04-26 01:26 | 34.00435 | -117.87206 | 7521 ft | 265 kts | 258° |
| 2026-04-26 01:26 | 34.00097 | -117.89364 | 7181 ft | 262 kts | 258° |
| 2026-04-26 01:27 | 33.99758 | -117.91505 | 6870 ft | 258 kts | 258° |
| 2026-04-26 01:27 | 33.99430 | -117.93607 | 6567 ft | 254 kts | 258° |
| 2026-04-26 01:27 | 33.99111 | -117.95669 | 6271 ft | 250 kts | 259° |
| 2026-04-26 01:27 | 33.98800 | -117.97702 | 5983 ft | 246 kts | 259° |
| 2026-04-26 01:28 | 33.98493 | -117.99717 | 5699 ft | 241 kts | 259° |
| 2026-04-26 01:28 | 33.98192 | -118.01692 | 5425 ft | 237 kts | 259° |
| 2026-04-26 01:28 | 33.97898 | -118.03619 | 5159 ft | 233 kts | 259° |
| 2026-04-26 01:28 | 33.97608 | -118.05519 | 4898 ft | 230 kts | 259° |
| 2026-04-26 01:29 | 33.97321 | -118.07403 | 4639 ft | 226 kts | 259° |
| 2026-04-26 01:29 | 33.97040 | -118.09235 | 4388 ft | 222 kts | 259° |
| 2026-04-26 01:29 | 33.96763 | -118.11039 | 4176 ft | 217 kts | 259° |
| 2026-04-26 01:29 | 33.96493 | -118.12801 | 3980 ft | 211 kts | 259° |
| 2026-04-26 01:30 | 33.96248 | -118.14503 | 3794 ft | 205 kts | 260° |
| 2026-04-26 01:30 | 33.96037 | -118.16176 | 3602 ft | 200 kts | 261° |
| 2026-04-26 01:30 | 33.95850 | -118.17819 | 3399 ft | 194 kts | 262° |
| 2026-04-26 01:30 | 33.95682 | -118.19389 | 3226 ft | 185 kts | 262° |
| 2026-04-26 01:31 | 33.95525 | -118.20901 | 2950 ft | 180 kts | 262° |
| 2026-04-26 01:31 | 33.95373 | -118.22386 | 2692 ft | 180 kts | 262° |
| 2026-04-26 01:31 | 33.95218 | -118.23891 | 2439 ft | 180 kts | 262° |
| 2026-04-26 01:31 | 33.95067 | -118.25366 | 2195 ft | 178 kts | 262° |
| 2026-04-26 01:32 | 33.94917 | -118.26820 | 1946 ft | 170 kts | 262° |
| 2026-04-26 01:32 | 33.94779 | -118.28167 | 1745 ft | 155 kts | 262° |
| 2026-04-26 01:32 | 33.94653 | -118.29395 | 1539 ft | 143 kts | 262° |
| 2026-04-26 01:32 | 33.94530 | -118.30582 | 1364 ft | 143 kts | 261° |
| 2026-04-26 01:33 | 33.94406 | -118.31780 | 1186 ft | 143 kts | 262° |
| 2026-04-26 01:33 | 33.94279 | -118.32955 | 1009 ft | 142 kts | 261° |
| 2026-04-26 01:33 | 33.94150 | -118.34116 | 845 ft | 136 kts | 262° |
| 2026-04-26 01:33 | 33.94046 | -118.35229 | 649 ft | 134 kts | 261° |
| 2026-04-26 01:34 | 33.93929 | -118.36334 | 476 ft | 133 kts | 261° |
| 2026-04-26 01:34 | 33.93821 | -118.37436 | 295 ft | 132 kts | 261° |
| 2026-04-26 01:34 | 33.93710 | -118.38537 | 120 ft | 131 kts | 261° |
| 2026-04-26 01:34 | 33.93614 | -118.39489 | 110 ft | 91 kts | 262° |
| 2026-04-26 01:35 | 33.93553 | -118.40092 | 119 ft | 63 kts | 261° |
| 2026-04-26 01:35 | 33.93541 | -118.40445 | 123 ft | 25 kts | 281° |
| 2026-04-26 01:35 | 33.93585 | -118.40612 | 125 ft | 17 kts | 293° |
| 2026-04-26 01:35 | 33.93598 | -118.40720 | 126 ft | 5 kts | 266° |
| 2026-04-26 01:36 | 33.93597 | -118.40721 | 126 ft | 0 kts | 266° |
| 2026-04-26 01:36 | 33.93597 | -118.40723 | 126 ft | 0 kts | 266° |
| 2026-04-26 01:36 | 33.93597 | -118.40734 | 126 ft | 0 kts | 265° |
| 2026-04-26 01:37 | 33.93595 | -118.40745 | 126 ft | 6 kts | 264° |
| 2026-04-26 01:37 | 33.93606 | -118.40842 | 127 ft | 12 kts | 290° |
| 2026-04-26 01:37 | 33.93679 | -118.40900 | 127 ft | 15 kts | 352° |
| 2026-04-26 01:38 | 33.93802 | -118.40919 | 127 ft | 14 kts | 353° |
| 2026-04-26 01:38 | 33.93875 | -118.40855 | 127 ft | 16 kts | 84° |
| 2026-04-26 01:38 | 33.93891 | -118.40688 | 126 ft | 23 kts | 84° |
| 2026-04-26 01:38 | 33.93914 | -118.40475 | 123 ft | 26 kts | 82° |
| 2026-04-26 01:39 | 33.93936 | -118.40251 | 120 ft | 25 kts | 84° |
| 2026-04-26 01:39 | 33.93960 | -118.40027 | 118 ft | 25 kts | 83° |
| 2026-04-26 01:39 | 33.93990 | -118.39839 | 114 ft | 19 kts | 37° |
| 2026-04-26 01:39 | 33.94087 | -118.39831 | 114 ft | 4 kts | 20° |
| 2026-04-26 01:40 | 33.94093 | -118.39795 | 113 ft | 5 kts | 86° |
| 2026-04-26 01:40 | 33.94094 | -118.39774 | 113 ft | 0 kts | 83° |